Terminal Aerodrome Forecast
Issued by NWS Topeka, KS

Home | Current Version | Previous Version | Text Only | Print | Product List | Glossary On
Versions: 1 2 3 4 5 6 7 8 9 10 11 12 13 14 15 16
000
FTUS43 KTOP 281700
TAFTOP
TAF
KTOP 281737Z 2818/2918 12012KT P6SM SKC
     FM290500 17013KT P6SM SCT020
     FM290800 19014G21KT P6SM VCSH BKN015
     FM291400 22014G21KT P6SM SCT020
     FM291700 32016G23KT P6SM SKC=

USA.gov is the U.S. government's official web portal to all federal, state and local government web resources and services.